createdAt,value
2018-04-10T00:01:56.861Z,77.30
2018-04-10T00:06:00.432Z,78.10
2018-04-10T00:10:03.191Z,77.40
2018-04-10T00:14:05.922Z,77.70
2018-04-10T00:18:09.418Z,77.70
2018-04-10T00:22:12.128Z,77.70
2018-04-10T00:26:15.133Z,78.40
2018-04-10T00:30:18.680Z,77.80
2018-04-10T00:34:21.476Z,78.50
2018-04-10T00:38:24.313Z,77.80
2018-04-10T00:42:27.051Z,77.80
2018-04-10T00:46:29.736Z,77.90
2018-04-10T00:50:32.468Z,78.30
2018-04-10T00:54:35.207Z,78.40
2018-04-10T00:58:38.113Z,78.80
2018-04-10T01:02:40.872Z,79.60
2018-04-10T01:06:44.422Z,80.20
2018-04-10T01:10:47.233Z,80.20
2018-04-10T01:14:49.987Z,80.40
2018-04-10T01:18:53.561Z,80.10
2018-04-10T01:22:57.186Z,80.30
2018-04-10T01:26:59.934Z,80.10
2018-04-10T01:31:02.767Z,80.50
2018-04-10T01:35:05.502Z,80.40
2018-04-10T01:39:08.484Z,80.20
2018-04-10T01:43:11.211Z,79.80
2018-04-10T01:47:14.786Z,80.20
2018-04-10T01:51:17.530Z,80.30
2018-04-10T01:55:21.068Z,81.20
2018-04-10T01:59:23.807Z,81.20
2018-04-10T02:03:26.568Z,81.80
2018-04-10T02:07:29.321Z,82.10
2018-04-10T02:11:32.270Z,82.00
2018-04-10T02:15:35.124Z,81.90
2018-04-10T02:19:38.596Z,83.10
2018-04-10T02:23:42.233Z,83.30
2018-04-10T02:27:44.971Z,83.30
2018-04-10T02:31:47.879Z,83.70
2018-04-10T02:35:50.619Z,83.50
2018-04-10T02:39:53.452Z,83.70
2018-04-10T02:43:56.971Z,84.70
2018-04-10T02:48:00.522Z,84.70
2018-04-10T02:52:03.258Z,84.70
2018-04-10T02:56:06.039Z,85.20
2018-04-10T03:00:08.797Z,85.70
2018-04-10T03:04:11.793Z,85.90
2018-04-10T03:08:14.533Z,85.80
2018-04-10T03:12:17.373Z,85.80
2018-04-10T03:16:21.240Z,86.30
2018-04-10T03:20:24.041Z,86.20
2018-04-10T03:24:26.832Z,86.80
2018-04-10T03:28:29.684Z,86.90
2018-04-10T03:32:33.187Z,86.60
2018-04-10T03:36:36.244Z,86.50
2018-04-10T03:40:39.002Z,86.90
2018-04-10T03:44:42.567Z,86.50
2018-04-10T03:48:45.282Z,86.50
2018-04-10T03:52:48.212Z,86.30
2018-04-10T03:56:51.717Z,86.10
2018-04-10T04:00:55.444Z,86.30
2018-04-10T04:04:58.957Z,86.30
2018-04-10T04:09:02.616Z,86.40
2018-04-10T04:13:05.432Z,86.40
2018-04-10T04:17:20.076Z,86.10
2018-04-10T04:21:34.615Z,86.80
2018-04-10T04:25:37.327Z,86.50
2018-04-10T04:29:40.244Z,86.00
2018-04-10T04:33:42.968Z,85.80
2018-04-10T04:37:47.717Z,84.70
2018-04-10T04:41:50.559Z,84.70
2018-04-10T04:45:53.481Z,84.40
2018-04-10T04:49:56.219Z,84.20
2018-04-10T04:53:58.971Z,84.10
2018-04-10T04:58:01.719Z,83.50
2018-04-10T05:02:05.310Z,82.40
2018-04-10T05:06:08.033Z,82.40
2018-04-10T05:10:11.682Z,81.20
2018-04-10T05:14:14.459Z,80.50
2018-04-10T05:18:17.979Z,79.00
2018-04-10T05:22:20.782Z,79.00
2018-04-10T05:26:23.523Z,78.30
2018-04-10T05:30:26.333Z,78.30
2018-04-10T05:34:29.063Z,78.10
2018-04-10T05:38:32.162Z,77.80
2018-04-10T05:42:35.061Z,76.80
2018-04-10T05:46:38.570Z,75.50
2018-04-10T05:50:42.352Z,74.70
2018-04-10T05:54:45.106Z,74.60
2018-04-10T05:58:48.144Z,74.70
2018-04-10T06:02:51.654Z,73.00
2018-04-10T06:06:54.506Z,73.00
2018-04-10T06:10:58.022Z,72.80
2018-04-10T06:15:01.544Z,72.80
2018-04-10T06:19:04.433Z,72.70
2018-04-10T06:23:07.218Z,71.20
2018-04-10T06:27:10.030Z,72.30
2018-04-10T06:31:13.754Z,70.10
2018-04-10T06:35:17.300Z,68.30
2018-04-10T06:39:20.649Z,68.20
2018-04-10T06:43:23.594Z,67.30
2018-04-10T06:47:27.060Z,66.50
2018-04-10T06:51:31.278Z,64.20
2018-04-10T06:55:34.171Z,64.70
2018-04-10T06:59:37.271Z,65.20
2018-04-10T07:03:40.972Z,63.60
2018-04-10T07:07:44.781Z,63.50
2018-04-10T07:11:47.812Z,64.50
2018-04-10T07:15:50.786Z,63.70
2018-04-10T07:19:54.445Z,64.90
2018-04-10T07:23:57.282Z,64.60
2018-04-10T07:28:00.817Z,64.40
2018-04-10T07:32:04.176Z,64.40
2018-04-10T07:36:07.967Z,60.80
2018-04-10T07:40:10.980Z,60.80
2018-04-10T07:44:14.163Z,60.40
2018-04-10T07:48:17.158Z,61.10
2018-04-10T07:52:20.296Z,61.10
2018-04-10T07:56:23.177Z,60.30
2018-04-10T08:00:26.182Z,60.40
2018-04-10T08:04:28.896Z,61.00
2018-04-10T08:08:31.676Z,60.90
2018-04-10T08:12:35.511Z,61.30
2018-04-10T08:16:38.307Z,61.80
2018-04-10T08:20:41.153Z,61.60
2018-04-10T08:24:44.648Z,60.60
2018-04-10T08:28:47.402Z,60.60
2018-04-10T08:32:50.342Z,60.40
2018-04-10T08:36:53.114Z,61.20
2018-04-10T08:40:56.079Z,60.70
2018-04-10T08:44:58.835Z,59.40
2018-04-10T08:49:01.551Z,59.60
2018-04-10T08:53:05.330Z,63.20
2018-04-10T08:57:08.846Z,62.80
2018-04-10T09:01:11.798Z,62.30
2018-04-10T09:05:15.303Z,63.50
2018-04-10T09:09:18.840Z,63.10
2018-04-10T09:13:21.776Z,62.60
2018-04-10T09:17:24.520Z,61.90
2018-04-10T09:21:28.201Z,60.10
2018-04-10T09:25:31.037Z,60.10
2018-04-10T09:29:34.643Z,57.10
2018-04-10T09:33:37.571Z,57.10
2018-04-10T09:37:40.313Z,56.10
2018-04-10T09:41:43.042Z,54.10
2018-04-10T09:45:46.707Z,51.10
2018-04-10T09:49:49.448Z,51.20
2018-04-10T09:53:52.216Z,51.90
2018-04-10T09:57:54.978Z,51.90
2018-04-10T10:01:58.090Z,52.00
2018-04-10T10:06:00.928Z,50.70
2018-04-10T10:10:16.392Z,51.50
2018-04-10T10:14:19.332Z,52.00
2018-04-10T10:18:22.047Z,52.00
2018-04-10T10:22:25.537Z,49.50
2018-04-10T10:26:28.318Z,49.60
2018-04-10T10:30:31.105Z,49.10
2018-04-10T10:34:34.058Z,49.40
2018-04-10T10:38:37.574Z,49.70
2018-04-10T10:42:41.053Z,51.50
2018-04-10T10:46:43.795Z,51.40
2018-04-10T10:50:46.524Z,51.30
2018-04-10T10:54:49.496Z,52.60
2018-04-10T10:58:52.337Z,51.50
2018-04-10T11:02:55.116Z,49.90
2018-04-10T11:06:58.774Z,50.80
2018-04-10T11:11:01.522Z,50.80
2018-04-10T11:15:04.488Z,50.00
2018-04-10T11:19:07.980Z,51.00
2018-04-10T11:23:10.768Z,50.90
2018-04-10T11:27:14.029Z,49.90
2018-04-10T11:31:19.073Z,50.60
2018-04-10T11:35:25.704Z,52.50
2018-04-10T11:39:31.804Z,53.30
2018-04-10T11:43:34.976Z,54.00
2018-04-10T11:47:37.995Z,50.90
2018-04-10T11:51:41.826Z,42.50
2018-04-10T11:55:45.753Z,42.50
2018-04-10T11:59:48.483Z,43.40
2018-04-10T12:03:51.253Z,42.90
2018-04-10T12:07:54.893Z,39.70
2018-04-10T12:11:57.624Z,40.30
2018-04-10T12:16:00.524Z,38.50
2018-04-10T12:20:03.283Z,41.50
2018-04-10T12:24:06.820Z,42.40
2018-04-10T12:28:09.685Z,42.50
2018-04-10T12:32:13.221Z,41.80
2018-04-10T12:36:16.041Z,41.60
2018-04-10T12:40:18.759Z,41.30
2018-04-10T12:44:21.484Z,42.40
2018-04-10T12:48:24.353Z,44.70
2018-04-10T12:52:27.284Z,43.60
2018-04-10T12:56:30.079Z,42.60
2018-04-10T13:00:32.847Z,42.50
2018-04-10T13:04:35.604Z,42.60
2018-04-10T13:08:38.688Z,43.30
2018-04-10T13:12:42.198Z,41.00
2018-04-10T13:16:45.712Z,40.40
2018-04-10T13:20:49.281Z,42.20
2018-04-10T13:24:52.022Z,42.20
2018-04-10T13:28:55.745Z,40.90
2018-04-10T13:32:59.281Z,42.30
2018-04-10T13:37:02.542Z,42.30
2018-04-10T13:41:05.277Z,43.80
2018-04-10T13:45:08.092Z,45.00
2018-04-10T13:49:10.887Z,45.80
2018-04-10T13:53:13.754Z,45.40
2018-04-10T13:57:16.919Z,47.10
2018-04-10T14:01:19.767Z,47.10
2018-04-10T14:05:22.573Z,43.70
2018-04-10T14:09:26.430Z,42.50
2018-04-10T14:13:29.209Z,42.40
2018-04-10T14:17:32.191Z,44.10
2018-04-10T14:21:35.038Z,42.10
2018-04-10T14:25:37.808Z,39.00
2018-04-10T14:29:40.666Z,40.60
2018-04-10T14:33:43.497Z,42.60
2018-04-10T14:37:47.229Z,45.60
2018-04-10T14:41:49.956Z,45.50
2018-04-10T14:45:52.697Z,46.80
2018-04-10T14:49:57.252Z,48.10
2018-04-10T14:54:00.970Z,48.10
2018-04-10T14:58:03.841Z,48.20
2018-04-10T15:02:06.573Z,49.00
2018-04-10T15:06:09.566Z,48.20
2018-04-10T15:10:12.440Z,48.70
2018-04-10T15:14:15.236Z,47.70
2018-04-10T15:18:17.994Z,47.40
2018-04-10T15:22:21.547Z,48.30
2018-04-10T15:26:24.337Z,48.30
2018-04-10T15:30:27.160Z,47.60
2018-04-10T15:34:30.700Z,50.10
2018-04-10T15:38:33.472Z,50.10
2018-04-10T15:42:36.948Z,51.90
2018-04-10T15:46:39.731Z,52.00
2018-04-10T15:50:42.515Z,51.60
2018-04-10T15:54:45.227Z,52.40
2018-04-10T15:58:48.074Z,52.60
2018-04-10T16:02:52.155Z,52.50
2018-04-10T16:06:54.894Z,52.50
2018-04-10T16:10:58.630Z,52.30
2018-04-10T16:15:02.164Z,52.40
2018-04-10T16:19:05.122Z,52.50
2018-04-10T16:23:07.866Z,52.70
2018-04-10T16:27:10.902Z,52.60
2018-04-10T16:31:13.737Z,53.20
2018-04-10T16:35:16.486Z,53.20
2018-04-10T16:39:19.242Z,52.30
2018-04-10T16:43:22.163Z,52.30
2018-04-10T16:47:25.180Z,53.40
2018-04-10T16:51:27.924Z,52.40
2018-04-10T16:55:31.519Z,52.70
2018-04-10T16:59:34.262Z,52.70
2018-04-10T17:03:37.002Z,53.00
2018-04-10T17:07:39.780Z,51.60
2018-04-10T17:11:43.505Z,53.60
2018-04-10T17:15:46.250Z,53.50
2018-04-10T17:19:49.994Z,51.90
2018-04-10T17:23:52.891Z,51.90
2018-04-10T17:27:55.647Z,53.60
2018-04-10T17:32:00.381Z,53.10
2018-04-10T17:36:03.160Z,52.50
2018-04-10T17:40:05.908Z,53.30
2018-04-10T17:44:09.406Z,53.20
2018-04-10T17:48:12.174Z,53.00
2018-04-10T17:52:15.000Z,52.40
2018-04-10T17:56:17.758Z,54.10
2018-04-10T18:00:20.622Z,55.00
2018-04-10T18:04:23.480Z,54.00
2018-04-10T18:08:26.224Z,54.90
2018-04-10T18:12:29.162Z,56.60
2018-04-10T18:16:31.980Z,57.60
2018-04-10T18:20:34.841Z,59.10
2018-04-10T18:24:37.740Z,59.90
2018-04-10T18:28:41.374Z,61.40
2018-04-10T18:32:46.399Z,60.60
2018-04-10T18:36:49.132Z,61.60
2018-04-10T18:40:51.837Z,62.80
2018-04-10T18:44:55.091Z,60.90
2018-04-10T18:49:00.960Z,62.80
2018-04-10T18:53:03.993Z,62.80
2018-04-10T18:57:06.988Z,62.80
2018-04-10T19:01:09.745Z,63.90
2018-04-10T19:05:13.480Z,64.80
2018-04-10T19:09:17.907Z,65.70
2018-04-10T19:13:21.568Z,65.70
2018-04-10T19:17:24.321Z,62.80
2018-04-10T19:21:27.853Z,62.80
2018-04-10T19:25:31.132Z,62.80
2018-04-10T19:29:34.870Z,63.20
2018-04-10T19:33:37.865Z,63.20
2018-04-10T19:37:40.809Z,65.30
2018-04-10T19:41:43.625Z,66.30
2018-04-10T19:45:46.412Z,64.50
2018-04-10T19:49:49.173Z,64.40
2018-04-10T19:53:52.029Z,64.40
2018-04-10T19:57:55.201Z,66.50
2018-04-10T20:01:58.760Z,67.20
2018-04-10T20:06:02.338Z,67.50
2018-04-10T20:10:05.076Z,67.10
2018-04-10T20:14:07.815Z,67.20
2018-04-10T20:18:10.696Z,67.90
2018-04-10T20:22:13.428Z,68.50
2018-04-10T20:26:16.292Z,68.20
2018-04-10T20:30:19.024Z,69.40
2018-04-10T20:34:21.831Z,70.30
2018-04-10T20:38:25.340Z,70.90
2018-04-10T20:42:28.445Z,70.90
2018-04-10T20:46:31.211Z,71.80
2018-04-10T20:50:34.121Z,72.40
2018-04-10T20:54:36.827Z,72.70
2018-04-10T20:58:39.583Z,72.70
2018-04-10T21:02:42.368Z,72.70
2018-04-10T21:06:45.110Z,72.90
2018-04-10T21:10:47.913Z,72.50
2018-04-10T21:14:50.788Z,72.50
2018-04-10T21:18:53.568Z,72.50
2018-04-10T21:22:57.067Z,72.90
2018-04-10T21:27:01.017Z,72.80
2018-04-10T21:31:04.512Z,74.50
2018-04-10T21:35:07.347Z,74.40
2018-04-10T21:39:11.052Z,73.30
2018-04-10T21:43:20.413Z,73.50
2018-04-10T21:47:23.127Z,73.50
2018-04-10T21:51:26.343Z,74.60
2018-04-10T21:55:29.081Z,74.00
2018-04-10T21:59:32.785Z,74.10
2018-04-10T22:03:36.573Z,74.10
2018-04-10T22:07:40.354Z,74.00
2018-04-10T22:11:43.269Z,73.80
2018-04-10T22:15:46.176Z,73.80
2018-04-10T22:19:48.902Z,74.30
2018-04-10T22:23:51.700Z,74.10
2018-04-10T22:27:54.428Z,74.70
2018-04-10T22:31:58.016Z,74.60
2018-04-10T22:36:00.747Z,74.60
2018-04-10T22:40:03.739Z,74.90
2018-04-10T22:44:06.459Z,75.40
2018-04-10T22:48:10.330Z,75.30
2018-04-10T22:52:14.104Z,75.20
2018-04-10T22:56:16.857Z,75.20
2018-04-10T23:00:54.094Z,75.80
2018-04-10T23:04:56.829Z,75.80
2018-04-10T23:08:59.729Z,75.80
2018-04-10T23:13:03.243Z,76.30
2018-04-10T23:17:06.737Z,77.60
2018-04-10T23:21:09.722Z,77.50
2018-04-10T23:25:12.535Z,77.40
2018-04-10T23:29:15.926Z,76.70
2018-04-10T23:33:18.910Z,76.50
2018-04-10T23:37:21.800Z,77.00
2018-04-10T23:41:25.370Z,77.40
2018-04-10T23:45:28.266Z,77.40
2018-04-10T23:49:30.968Z,77.00
2018-04-10T23:53:33.767Z,76.80
2018-04-10T23:57:36.478Z,77.20
